Westville, Connecticut
Current Conditions -  °F | °C
As of 6:53 PM on Friday 21 Nov 2014 (Local Time) from KHVN Reporting Station
Clear Clear  
Wind Chill: 29°   Ceiling: Unl
Heat Index: 34°   Visibility: 10mi
Dew Point: 10°   Wind: 6mph
Humidity: 37%   Direction: 340°NNW
Pressure: 30.44"   Gusts: NA
Location:  41.3258°N, 72.9705°W
Report Text: KHVN 212353Z 34005KT 10SM CLR 01/M12 A3044 RMK AO2 SLP307 T00111122 10039 20011 51039
Loading
Personal Weather Stations






























Interactive Weather Map New forecast layout! Learn more

10-Day Weather Forecast

Advertisements
Track Severe Weather on mobile